sensor_id;sensor_type;location;lat;lon;timestamp;pressure;altitude;pressure_sealevel;temperature;humidity
30730;BME280;17476;48.458;7.928;2023-02-01T00:00:16;100925.13;;;5.21;98.13
30730;BME280;17476;48.458;7.928;2023-02-01T00:02:42;100922.94;;;5.28;97.85
30730;BME280;17476;48.458;7.928;2023-02-01T00:05:09;100920.16;;;5.18;98.33
30730;BME280;17476;48.458;7.928;2023-02-01T00:07:36;100911.44;;;5.19;98.82
30730;BME280;17476;48.458;7.928;2023-02-01T00:10:04;100910.31;;;5.23;98.42
30730;BME280;17476;48.458;7.928;2023-02-01T00:12:31;100904.31;;;5.23;98.93
30730;BME280;17476;48.458;7.928;2023-02-01T00:14:57;100906.38;;;5.17;98.50
30730;BME280;17476;48.458;7.928;2023-02-01T00:17:23;100899.66;;;5.15;98.39
30730;BME280;17476;48.458;7.928;2023-02-01T00:19:49;100894.66;;;5.12;98.63
30730;BME280;17476;48.458;7.928;2023-02-01T00:22:15;100891.88;;;5.15;99.47
30730;BME280;17476;48.458;7.928;2023-02-01T00:24:40;100884.41;;;5.10;99.54
30730;BME280;17476;48.458;7.928;2023-02-01T00:27:06;100869.38;;;5.03;100.00
30730;BME280;17476;48.458;7.928;2023-02-01T00:29:32;100860.34;;;4.96;100.00
30730;BME280;17476;48.458;7.928;2023-02-01T00:31:58;100863.97;;;4.93;100.00
30730;BME280;17476;48.458;7.928;2023-02-01T00:34:24;100875.38;;;4.90;100.00
30730;BME280;17476;48.458;7.928;2023-02-01T00:36:50;100874.34;;;4.93;100.00
30730;BME280;17476;48.458;7.928;2023-02-01T00:39:16;100876.09;;;4.92;100.00
30730;BME280;17476;48.458;7.928;2023-02-01T00:41:42;100879.63;;;4.91;100.00
30730;BME280;17476;48.458;7.928;2023-02-01T00:44:08;100874.25;;;4.95;100.00
30730;BME280;17476;48.458;7.928;2023-02-01T00:46:34;100863.66;;;4.98;100.00
30730;BME280;17476;48.458;7.928;2023-02-01T00:49:00;100857.25;;;4.90;100.00
30730;BME280;17476;48.458;7.928;2023-02-01T00:51:28;100856.13;;;4.95;100.00
30730;BME280;17476;48.458;7.928;2023-02-01T00:53:55;100852.97;;;5.15;99.87
30730;BME280;17476;48.458;7.928;2023-02-01T00:56:21;100843.53;;;5.01;99.85
30730;BME280;17476;48.458;7.928;2023-02-01T00:58:47;100854.84;;;5.00;99.76
30730;BME280;17476;48.458;7.928;2023-02-01T01:01:19;100848.22;;;4.96;99.28
30730;BME280;17476;48.458;7.928;2023-02-01T01:03:49;100850.47;;;5.01;99.97
30730;BME280;17476;48.458;7.928;2023-02-01T01:06:26;100843.88;;;4.97;99.91
30730;BME280;17476;48.458;7.928;2023-02-01T01:08:54;100841.78;;;5.02;99.68
30730;BME280;17476;48.458;7.928;2023-02-01T01:11:25;100841.69;;;5.03;98.39
30730;BME280;17476;48.458;7.928;2023-02-01T01:13:53;100844.56;;;5.11;98.69
30730;BME280;17476;48.458;7.928;2023-02-01T01:16:22;100848.22;;;5.09;97.96
30730;BME280;17476;48.458;7.928;2023-02-01T01:18:48;100841.75;;;5.14;98.10
30730;BME280;17476;48.458;7.928;2023-02-01T01:21:16;100846.22;;;5.12;97.41
30730;BME280;17476;48.458;7.928;2023-02-01T01:23:43;100843.53;;;5.14;97.89
30730;BME280;17476;48.458;7.928;2023-02-01T01:26:16;100852.75;;;5.18;97.11
30730;BME280;17476;48.458;7.928;2023-02-01T01:28:43;100857.13;;;5.17;96.92
30730;BME280;17476;48.458;7.928;2023-02-01T01:31:14;100859.06;;;5.14;97.29
30730;BME280;17476;48.458;7.928;2023-02-01T01:33:40;100861.47;;;5.17;97.12
30730;BME280;17476;48.458;7.928;2023-02-01T01:36:08;100856.28;;;5.17;97.38
30730;BME280;17476;48.458;7.928;2023-02-01T01:38:37;100854.81;;;5.13;97.13
30730;BME280;17476;48.458;7.928;2023-02-01T01:41:03;100853.19;;;5.12;97.52
30730;BME280;17476;48.458;7.928;2023-02-01T01:47:13;100852.34;;;5.11;96.81
30730;BME280;17476;48.458;7.928;2023-02-01T01:49:40;100849.44;;;5.16;96.89
30730;BME280;17476;48.458;7.928;2023-02-01T01:52:06;100841.88;;;5.13;97.58
30730;BME280;17476;48.458;7.928;2023-02-01T01:54:45;100847.06;;;5.13;97.54
30730;BME280;17476;48.458;7.928;2023-02-01T01:57:20;100838.13;;;5.17;96.77
30730;BME280;17476;48.458;7.928;2023-02-01T01:59:55;100826.13;;;5.16;96.59
30730;BME280;17476;48.458;7.928;2023-02-01T02:02:25;100838.84;;;5.19;96.90
30730;BME280;17476;48.458;7.928;2023-02-01T02:04:51;100831.91;;;5.19;97.12
30730;BME280;17476;48.458;7.928;2023-02-01T02:07:23;100828.72;;;5.16;96.39
30730;BME280;17476;48.458;7.928;2023-02-01T02:09:50;100828.47;;;5.19;97.25
30730;BME280;17476;48.458;7.928;2023-02-01T02:12:16;100831.91;;;5.19;96.71
30730;BME280;17476;48.458;7.928;2023-02-01T02:14:42;100836.69;;;5.13;96.53
30730;BME280;17476;48.458;7.928;2023-02-01T02:26:04;100817.50;;;5.15;96.46
30730;BME280;17476;48.458;7.928;2023-02-01T02:29:22;100820.00;;;5.17;95.71
30730;BME280;17476;48.458;7.928;2023-02-01T02:46:47;100806.94;;;5.06;96.21
30730;BME280;17476;48.458;7.928;2023-02-01T02:49:51;100824.13;;;5.07;96.86
30730;BME280;17476;48.458;7.928;2023-02-01T02:52:54;100805.06;;;5.08;96.43
30730;BME280;17476;48.458;7.928;2023-02-01T02:56:02;100820.00;;;5.04;96.15
30730;BME280;17476;48.458;7.928;2023-02-01T02:58:48;100827.16;;;5.01;97.04
30730;BME280;17476;48.458;7.928;2023-02-01T03:01:34;100819.50;;;4.99;96.51
30730;BME280;17476;48.458;7.928;2023-02-01T03:04:18;100819.06;;;5.05;97.20
30730;BME280;17476;48.458;7.928;2023-02-01T03:06:46;100824.66;;;4.99;97.75
30730;BME280;17476;48.458;7.928;2023-02-01T03:11:52;100822.72;;;5.03;97.80
30730;BME280;17476;48.458;7.928;2023-02-01T03:14:41;100825.59;;;4.98;98.31
30730;BME280;17476;48.458;7.928;2023-02-01T03:17:23;100821.06;;;5.02;97.52
30730;BME280;17476;48.458;7.928;2023-02-01T03:19:52;100824.47;;;5.02;97.33
30730;BME280;17476;48.458;7.928;2023-02-01T03:22:24;100828.31;;;4.97;97.24
30730;BME280;17476;48.458;7.928;2023-02-01T03:25:03;100834.53;;;4.94;97.22
30730;BME280;17476;48.458;7.928;2023-02-01T03:27:59;100837.97;;;4.95;96.99
30730;BME280;17476;48.458;7.928;2023-02-01T03:30:34;100840.75;;;4.91;96.77
30730;BME280;17476;48.458;7.928;2023-02-01T03:33:07;100842.81;;;4.86;97.26
30730;BME280;17476;48.458;7.928;2023-02-01T03:35:50;100843.34;;;4.91;97.36
30730;BME280;17476;48.458;7.928;2023-02-01T03:43:55;100837.56;;;4.88;96.24
30730;BME280;17476;48.458;7.928;2023-02-01T03:46:32;100819.81;;;4.95;96.14
30730;BME280;17476;48.458;7.928;2023-02-01T03:49:08;100807.47;;;4.98;95.66
30730;BME280;17476;48.458;7.928;2023-02-01T03:51:38;100817.13;;;4.96;95.26
30730;BME280;17476;48.458;7.928;2023-02-01T03:54:09;100804.88;;;4.98;95.75
30730;BME280;17476;48.458;7.928;2023-02-01T03:56:38;100806.63;;;4.98;94.41
30730;BME280;17476;48.458;7.928;2023-02-01T03:59:08;100805.81;;;4.97;94.65
30730;BME280;17476;48.458;7.928;2023-02-01T04:01:34;100801.97;;;5.03;94.92
30730;BME280;17476;48.458;7.928;2023-02-01T04:03:59;100791.69;;;5.01;94.58
30730;BME280;17476;48.458;7.928;2023-02-01T04:06:26;100777.19;;;4.99;94.23
30730;BME280;17476;48.458;7.928;2023-02-01T04:08:52;100772.00;;;4.99;94.19
30730;BME280;17476;48.458;7.928;2023-02-01T04:11:18;100769.63;;;4.96;93.98
30730;BME280;17476;48.458;7.928;2023-02-01T04:13:44;100770.94;;;5.01;93.57
30730;BME280;17476;48.458;7.928;2023-02-01T04:16:10;100774.47;;;5.00;93.54
30730;BME280;17476;48.458;7.928;2023-02-01T04:18:36;100771.06;;;5.00;93.71
30730;BME280;17476;48.458;7.928;2023-02-01T04:21:03;100773.88;;;5.09;92.97
30730;BME280;17476;48.458;7.928;2023-02-01T04:23:29;100770.75;;;5.04;92.74
30730;BME280;17476;48.458;7.928;2023-02-01T04:26:01;100776.44;;;5.09;92.45
30730;BME280;17476;48.458;7.928;2023-02-01T04:28:28;100778.63;;;5.15;91.63
30730;BME280;17476;48.458;7.928;2023-02-01T04:30:54;100787.22;;;5.16;91.76
30730;BME280;17476;48.458;7.928;2023-02-01T04:33:20;100792.00;;;5.09;92.36
30730;BME280;17476;48.458;7.928;2023-02-01T04:35:47;100793.34;;;5.15;91.24
30730;BME280;17476;48.458;7.928;2023-02-01T04:38:13;100785.75;;;5.12;92.26
30730;BME280;17476;48.458;7.928;2023-02-01T04:40:39;100783.69;;;5.17;91.62
30730;BME280;17476;48.458;7.928;2023-02-01T04:43:05;100783.38;;;5.22;91.21
30730;BME280;17476;48.458;7.928;2023-02-01T04:45:31;100787.00;;;5.19;91.28
30730;BME280;17476;48.458;7.928;2023-02-01T04:47:57;100783.81;;;5.15;91.51
30730;BME280;17476;48.458;7.928;2023-02-01T04:50:22;100780.78;;;5.22;91.16
30730;BME280;17476;48.458;7.928;2023-02-01T04:52:49;100781.50;;;5.24;91.40
30730;BME280;17476;48.458;7.928;2023-02-01T04:55:15;100793.94;;;5.18;90.80
30730;BME280;17476;48.458;7.928;2023-02-01T04:57:41;100797.78;;;5.13;91.48
30730;BME280;17476;48.458;7.928;2023-02-01T05:00:09;100794.06;;;5.17;91.68
30730;BME280;17476;48.458;7.928;2023-02-01T05:02:35;100798.41;;;5.16;90.94
30730;BME280;17476;48.458;7.928;2023-02-01T05:05:02;100790.28;;;5.21;91.21
30730;BME280;17476;48.458;7.928;2023-02-01T05:07:28;100797.38;;;5.19;91.11
30730;BME280;17476;48.458;7.928;2023-02-01T05:09:53;100796.75;;;5.15;91.56
30730;BME280;17476;48.458;7.928;2023-02-01T05:12:19;100805.25;;;5.17;92.20
30730;BME280;17476;48.458;7.928;2023-02-01T05:15:04;100799.88;;;5.08;91.95
30730;BME280;17476;48.458;7.928;2023-02-01T05:17:31;100799.88;;;5.08;92.45
30730;BME280;17476;48.458;7.928;2023-02-01T05:19:56;100809.31;;;5.09;92.62
30730;BME280;17476;48.458;7.928;2023-02-01T05:22:22;100807.56;;;5.09;92.31
30730;BME280;17476;48.458;7.928;2023-02-01T05:24:48;100819.59;;;5.10;92.20
30730;BME280;17476;48.458;7.928;2023-02-01T05:27:14;100821.00;;;5.14;92.26
30730;BME280;17476;48.458;7.928;2023-02-01T05:29:40;100821.63;;;5.18;91.27
30730;BME280;17476;48.458;7.928;2023-02-01T05:32:05;100823.09;;;5.22;91.41
30730;BME280;17476;48.458;7.928;2023-02-01T05:34:31;100829.50;;;5.29;91.54
30730;BME280;17476;48.458;7.928;2023-02-01T05:36:57;100826.94;;;5.16;91.39
30730;BME280;17476;48.458;7.928;2023-02-01T05:39:23;100836.38;;;5.17;91.85
30730;BME280;17476;48.458;7.928;2023-02-01T05:41:49;100845.91;;;5.17;91.88
30730;BME280;17476;48.458;7.928;2023-02-01T05:44:14;100847.88;;;5.13;91.56
30730;BME280;17476;48.458;7.928;2023-02-01T05:46:40;100853.81;;;5.15;92.51
30730;BME280;17476;48.458;7.928;2023-02-01T05:49:06;100849.44;;;5.16;91.54
30730;BME280;17476;48.458;7.928;2023-02-01T05:51:33;100852.97;;;5.15;92.26
30730;BME280;17476;48.458;7.928;2023-02-01T05:53:59;100858.16;;;5.15;92.24
30730;BME280;17476;48.458;7.928;2023-02-01T05:56:25;100866.78;;;5.15;92.51
30730;BME280;17476;48.458;7.928;2023-02-01T05:58:52;100866.34;;;5.09;92.94
30730;BME280;17476;48.458;7.928;2023-02-01T06:01:17;100863.97;;;5.06;92.65
30730;BME280;17476;48.458;7.928;2023-02-01T06:03:43;100869.97;;;5.06;92.29
30730;BME280;17476;48.458;7.928;2023-02-01T06:06:09;100869.38;;;5.03;93.84
30730;BME280;17476;48.458;7.928;2023-02-01T06:08:35;100864.72;;;4.95;93.79
30730;BME280;17476;48.458;7.928;2023-02-01T06:11:04;100868.84;;;4.98;93.29
30730;BME280;17476;48.458;7.928;2023-02-01T06:13:30;100876.84;;;4.95;93.86
30730;BME280;17476;48.458;7.928;2023-02-01T06:15:56;100877.34;;;5.00;94.37
30730;BME280;17476;48.458;7.928;2023-02-01T06:18:24;100862.00;;;4.97;93.63
30730;BME280;17476;48.458;7.928;2023-02-01T06:20:57;100857.75;;;4.96;94.29
30730;BME280;17476;48.458;7.928;2023-02-01T06:23:25;100853.19;;;4.86;94.98
30730;BME280;17476;48.458;7.928;2023-02-01T06:26:06;100853.28;;;4.98;93.63
30730;BME280;17476;48.458;7.928;2023-02-01T06:28:35;100852.59;;;4.96;94.03
30730;BME280;17476;48.458;7.928;2023-02-01T06:31:05;100856.50;;;5.01;94.61
30730;BME280;17476;48.458;7.928;2023-02-01T06:33:35;100860.44;;;4.94;95.67
30730;BME280;17476;48.458;7.928;2023-02-01T06:36:04;100889.16;;;4.91;97.31
30730;BME280;17476;48.458;7.928;2023-02-01T06:38:32;100875.91;;;4.96;97.60
30730;BME280;17476;48.458;7.928;2023-02-01T06:41:00;100884.63;;;4.95;96.99
30730;BME280;17476;48.458;7.928;2023-02-01T06:43:27;100895.59;;;4.85;98.13
30730;BME280;17476;48.458;7.928;2023-02-01T06:45:59;100888.75;;;4.84;98.24
30730;BME280;17476;48.458;7.928;2023-02-01T06:48:25;100890.22;;;4.88;98.01
30730;BME280;17476;48.458;7.928;2023-02-01T06:50:51;100895.59;;;4.85;98.78
30730;BME280;17476;48.458;7.928;2023-02-01T06:53:17;100893.63;;;4.89;98.11
30730;BME280;17476;48.458;7.928;2023-02-01T06:55:55;100891.44;;;4.83;98.65
30730;BME280;17476;48.458;7.928;2023-02-01T06:58:21;100889.69;;;4.83;98.69
30730;BME280;17476;48.458;7.928;2023-02-01T07:00:48;100879.50;;;4.80;99.43
30730;BME280;17476;48.458;7.928;2023-02-01T07:03:14;100886.78;;;4.75;99.85
30730;BME280;17476;48.458;7.928;2023-02-01T07:05:40;100886.78;;;4.75;99.80
30730;BME280;17476;48.458;7.928;2023-02-01T07:08:05;100885.31;;;4.71;100.00
30730;BME280;17476;48.458;7.928;2023-02-01T07:10:33;100890.72;;;4.68;100.00
30730;BME280;17476;48.458;7.928;2023-02-01T07:12:59;100885.00;;;4.63;99.85
30730;BME280;17476;48.458;7.928;2023-02-01T07:15:26;100880.66;;;4.63;100.00
30730;BME280;17476;48.458;7.928;2023-02-01T07:17:54;100883.25;;;4.63;100.00
30730;BME280;17476;48.458;7.928;2023-02-01T07:20:21;100887.59;;;4.63;100.00
30730;BME280;17476;48.458;7.928;2023-02-01T07:22:47;100893.09;;;4.71;99.53
30730;BME280;17476;48.458;7.928;2023-02-01T07:25:13;100895.91;;;4.68;99.83
30730;BME280;17476;48.458;7.928;2023-02-01T07:27:38;100894.44;;;4.64;100.00
30730;BME280;17476;48.458;7.928;2023-02-01T07:30:05;100892.16;;;4.72;100.00
30730;BME280;17476;48.458;7.928;2023-02-01T07:32:32;100882.09;;;4.80;100.00
30730;BME280;17476;48.458;7.928;2023-02-01T07:34:59;100876.50;;;4.74;100.00
30730;BME280;17476;48.458;7.928;2023-02-01T07:37:25;100886.56;;;4.78;100.00
30730;BME280;17476;48.458;7.928;2023-02-01T07:39:51;100896.50;;;4.72;100.00
30730;BME280;17476;48.458;7.928;2023-02-01T07:42:18;100893.28;;;4.81;100.00
30730;BME280;17476;48.458;7.928;2023-02-01T07:44:44;100906.59;;;4.76;100.00
30730;BME280;17476;48.458;7.928;2023-02-01T07:47:10;100893.81;;;4.86;99.65
30730;BME280;17476;48.458;7.928;2023-02-01T07:49:35;100900.25;;;4.80;99.64
30730;BME280;17476;48.458;7.928;2023-02-01T07:52:01;100901.94;;;4.81;100.00
30730;BME280;17476;48.458;7.928;2023-02-01T07:54:27;100910.19;;;4.86;99.11
30730;BME280;17476;48.458;7.928;2023-02-01T07:56:53;100906.78;;;4.86;98.95
30730;BME280;17476;48.458;7.928;2023-02-01T07:59:18;100914.25;;;4.90;99.92
30730;BME280;17476;48.458;7.928;2023-02-01T08:01:44;100903.78;;;4.92;99.08
30730;BME280;17476;48.458;7.928;2023-02-01T08:04:13;100912.06;;;4.84;99.22
30730;BME280;17476;48.458;7.928;2023-02-01T08:06:40;100911.13;;;4.85;99.05
30730;BME280;17476;48.458;7.928;2023-02-01T08:09:07;100897.59;;;4.95;99.04
30730;BME280;17476;48.458;7.928;2023-02-01T08:11:34;100894.88;;;4.83;98.85
30730;BME280;17476;48.458;7.928;2023-02-01T08:14:02;100900.47;;;4.90;98.49
30730;BME280;17476;48.458;7.928;2023-02-01T08:16:27;100908.97;;;4.92;99.02
30730;BME280;17476;48.458;7.928;2023-02-01T08:18:53;100899.13;;;4.97;98.75
30730;BME280;17476;48.458;7.928;2023-02-01T08:21:23;100908.97;;;5.05;97.48
30730;BME280;17476;48.458;7.928;2023-02-01T08:23:49;100907.50;;;5.01;97.98
30730;BME280;17476;48.458;7.928;2023-02-01T08:26:21;100909.91;;;5.04;97.42
30730;BME280;17476;48.458;7.928;2023-02-01T08:28:57;100903.47;;;4.97;97.87
30730;BME280;17476;48.458;7.928;2023-02-01T08:31:26;100904.63;;;5.05;97.61
30730;BME280;17476;48.458;7.928;2023-02-01T08:33:55;100907.31;;;5.04;97.60
30730;BME280;17476;48.458;7.928;2023-02-01T08:36:23;100894.75;;;5.10;96.81
30730;BME280;17476;48.458;7.928;2023-02-01T08:38:49;100894.75;;;5.23;96.87
30730;BME280;17476;48.458;7.928;2023-02-01T08:41:18;100885.72;;;5.29;96.18
30730;BME280;17476;48.458;7.928;2023-02-01T08:43:45;100888.31;;;5.29;96.51
30730;BME280;17476;48.458;7.928;2023-02-01T08:46:11;100898.16;;;5.36;96.65
30730;BME280;17476;48.458;7.928;2023-02-01T08:48:37;100906.44;;;5.41;95.79
30730;BME280;17476;48.458;7.928;2023-02-01T08:51:11;100909.34;;;5.50;94.51
30730;BME280;17476;48.458;7.928;2023-02-01T08:53:38;100910.25;;;5.48;94.64
30730;BME280;17476;48.458;7.928;2023-02-01T08:56:10;100916.63;;;5.44;95.64
30730;BME280;17476;48.458;7.928;2023-02-01T08:58:36;100921.38;;;5.51;94.67
30730;BME280;17476;48.458;7.928;2023-02-01T09:01:08;100924.50;;;5.56;94.31
30730;BME280;17476;48.458;7.928;2023-02-01T09:03:34;100921.25;;;5.52;94.02
30730;BME280;17476;48.458;7.928;2023-02-01T09:06:06;100926.97;;;5.57;94.65
30730;BME280;17476;48.458;7.928;2023-02-01T09:08:33;100927.91;;;5.56;93.44
30730;BME280;17476;48.458;7.928;2023-02-01T09:11:08;100926.31;;;5.66;93.65
30730;BME280;17476;48.458;7.928;2023-02-01T09:13:34;100922.59;;;5.58;94.21
30730;BME280;17476;48.458;7.928;2023-02-01T09:16:01;100937.88;;;5.62;93.81
30730;BME280;17476;48.458;7.928;2023-02-01T09:18:27;100936.53;;;5.57;94.20
30730;BME280;17476;48.458;7.928;2023-02-01T09:20:53;100939.00;;;5.58;93.75
30730;BME280;17476;48.458;7.928;2023-02-01T09:23:18;100929.34;;;5.60;93.84
30730;BME280;17476;48.458;7.928;2023-02-01T09:25:46;100928.63;;;5.58;94.13
30730;BME280;17476;48.458;7.928;2023-02-01T09:28:16;100932.75;;;5.61;95.53
30730;BME280;17476;48.458;7.928;2023-02-01T09:30:42;100930.09;;;5.62;94.75
30730;BME280;17476;48.458;7.928;2023-02-01T09:33:07;100924.16;;;5.60;95.91
30730;BME280;17476;48.458;7.928;2023-02-01T09:35:33;100923.28;;;5.72;93.93
30730;BME280;17476;48.458;7.928;2023-02-01T09:37:59;100920.00;;;5.70;94.10
30730;BME280;17476;48.458;7.928;2023-02-01T09:40:25;100922.19;;;5.64;96.12
30730;BME280;17476;48.458;7.928;2023-02-01T09:48:43;100932.09;;;5.83;95.17
30730;BME280;17476;48.458;7.928;2023-02-01T09:51:35;100929.28;;;5.86;94.51
30730;BME280;17476;48.458;7.928;2023-02-01T09:54:19;100932.69;;;5.99;93.16
30730;BME280;17476;48.458;7.928;2023-02-01T09:57:11;100930.91;;;5.99;94.09
30730;BME280;17476;48.458;7.928;2023-02-01T09:59:47;100938.09;;;5.96;94.25
30730;BME280;17476;48.458;7.928;2023-02-01T10:02:26;100948.16;;;6.00;94.64
30730;BME280;17476;48.458;7.928;2023-02-01T10:04:58;100954.41;;;5.98;94.19
30730;BME280;17476;48.458;7.928;2023-02-01T10:07:49;100955.13;;;6.00;94.12
30730;BME280;17476;48.458;7.928;2023-02-01T10:10:32;100963.97;;;5.97;93.92
30730;BME280;17476;48.458;7.928;2023-02-01T10:16:28;100969.25;;;5.96;95.55
30730;BME280;17476;48.458;7.928;2023-02-01T10:19:45;100964.44;;;6.02;94.66
30730;BME280;17476;48.458;7.928;2023-02-01T10:22:46;100966.06;;;6.16;94.85
30730;BME280;17476;48.458;7.928;2023-02-01T10:28:33;100971.44;;;6.26;94.13
30730;BME280;17476;48.458;7.928;2023-02-01T10:31:02;100970.16;;;6.32;92.45
30730;BME280;17476;48.458;7.928;2023-02-01T10:33:42;100972.91;;;6.41;91.79
30730;BME280;17476;48.458;7.928;2023-02-01T10:36:33;100971.97;;;6.42;92.32
30730;BME280;17476;48.458;7.928;2023-02-01T10:39:03;100956.88;;;6.47;92.84
30730;BME280;17476;48.458;7.928;2023-02-01T10:41:36;100951.69;;;6.47;92.27
30730;BME280;17476;48.458;7.928;2023-02-01T10:44:12;100956.19;;;6.45;93.29
30730;BME280;17476;48.458;7.928;2023-02-01T10:46:39;100958.41;;;6.50;92.60
30730;BME280;17476;48.458;7.928;2023-02-01T10:49:22;100945.53;;;6.48;92.45
30730;BME280;17476;48.458;7.928;2023-02-01T10:52:29;100954.91;;;6.51;92.71
30730;BME280;17476;48.458;7.928;2023-02-01T10:55:27;100959.16;;;6.52;91.44
30730;BME280;17476;48.458;7.928;2023-02-01T10:58:03;100952.06;;;6.54;91.33
30730;BME280;17476;48.458;7.928;2023-02-01T11:09:20;100951.13;;;6.55;90.15
30730;BME280;17476;48.458;7.928;2023-02-01T11:16:57;100939.69;;;6.57;91.20
30730;BME280;17476;48.458;7.928;2023-02-01T11:19:24;100917.00;;;6.60;91.09
30730;BME280;17476;48.458;7.928;2023-02-01T11:21:55;100913.09;;;6.54;91.47
30730;BME280;17476;48.458;7.928;2023-02-01T11:24:32;100910.63;;;6.52;91.48
30730;BME280;17476;48.458;7.928;2023-02-01T11:27:05;100908.03;;;6.64;91.00
30730;BME280;17476;48.458;7.928;2023-02-01T11:29:39;100896.81;;;6.63;90.43
30730;BME280;17476;48.458;7.928;2023-02-01T11:32:08;100889.72;;;6.54;90.31
30730;BME280;17476;48.458;7.928;2023-02-01T11:34:53;100891.22;;;6.56;90.58
30730;BME280;17476;48.458;7.928;2023-02-01T11:37:27;100886.28;;;6.53;91.16
30730;BME280;17476;48.458;7.928;2023-02-01T11:42:57;100891.16;;;6.58;90.77
30730;BME280;17476;48.458;7.928;2023-02-01T11:45:35;100882.75;;;6.54;90.71
30730;BME280;17476;48.458;7.928;2023-02-01T11:48:09;100872.59;;;6.51;91.85
30730;BME280;17476;48.458;7.928;2023-02-01T11:56:56;100857.00;;;6.51;91.81
30730;BME280;17476;48.458;7.928;2023-02-01T12:00:20;100867.41;;;6.63;91.11
30730;BME280;17476;48.458;7.928;2023-02-01T12:05:56;100870.00;;;6.63;90.75
30730;BME280;17476;48.458;7.928;2023-02-01T12:20:33;100867.19;;;6.77;91.09
30730;BME280;17476;48.458;7.928;2023-02-01T12:44:32;100841.19;;;6.77;88.27
30730;BME280;17476;48.458;7.928;2023-02-01T12:47:27;100842.63;;;6.81;87.68
30730;BME280;17476;48.458;7.928;2023-02-01T12:50:46;100847.00;;;6.80;87.98
30730;BME280;17476;48.458;7.928;2023-02-01T12:52:55;100838.38;;;6.80;88.01
30730;BME280;17476;48.458;7.928;2023-02-01T12:55:38;100846.16;;;6.80;87.25
30730;BME280;17476;48.458;7.928;2023-02-01T12:58:27;100838.25;;;6.81;88.11
30730;BME280;17476;48.458;7.928;2023-02-01T13:01:34;100838.94;;;6.83;86.24
30730;BME280;17476;48.458;7.928;2023-02-01T13:04:23;100842.88;;;6.78;86.98
30730;BME280;17476;48.458;7.928;2023-02-01T13:09:52;100833.53;;;6.87;84.82
30730;BME280;17476;48.458;7.928;2023-02-01T13:12:40;100836.69;;;6.90;85.31
30730;BME280;17476;48.458;7.928;2023-02-01T13:15:28;100837.66;;;6.89;84.60
30730;BME280;17476;48.458;7.928;2023-02-01T13:18:03;100838.38;;;6.91;84.53
30730;BME280;17476;48.458;7.928;2023-02-01T13:23:14;100838.84;;;6.96;82.69
30730;BME280;17476;48.458;7.928;2023-02-01T13:25:49;100827.72;;;6.94;81.84
30730;BME280;17476;48.458;7.928;2023-02-01T13:32:01;100824.44;;;6.92;83.07
30730;BME280;17476;48.458;7.928;2023-02-01T13:37:48;100822.19;;;6.99;80.77
30730;BME280;17476;48.458;7.928;2023-02-01T13:40:44;100817.81;;;6.99;81.01
30730;BME280;17476;48.458;7.928;2023-02-01T13:43:25;100813.44;;;7.00;81.17
30730;BME280;17476;48.458;7.928;2023-02-01T13:45:57;100814.97;;;7.02;81.11
30730;BME280;17476;48.458;7.928;2023-02-01T13:48:38;100814.25;;;7.11;80.55
30730;BME280;17476;48.458;7.928;2023-02-01T13:51:05;100808.94;;;7.02;80.21
30730;BME280;17476;48.458;7.928;2023-02-01T13:53:36;100809.53;;;7.05;80.24
30730;BME280;17476;48.458;7.928;2023-02-01T13:56:07;100814.50;;;7.08;80.25
30730;BME280;17476;48.458;7.928;2023-02-01T13:58:41;100815.78;;;7.03;79.43
30730;BME280;17476;48.458;7.928;2023-02-01T14:04:02;100817.06;;;6.97;79.89
30730;BME280;17476;48.458;7.928;2023-02-01T14:09:31;100825.47;;;6.90;79.70
30730;BME280;17476;48.458;7.928;2023-02-01T14:12:44;100820.88;;;6.93;78.90
30730;BME280;17476;48.458;7.928;2023-02-01T14:15:21;100824.06;;;6.97;78.94
30730;BME280;17476;48.458;7.928;2023-02-01T14:17:48;100823.22;;;6.96;77.22
30730;BME280;17476;48.458;7.928;2023-02-01T14:20:43;100820.75;;;6.95;77.14
30730;BME280;17476;48.458;7.928;2023-02-01T14:23:17;100820.75;;;6.95;77.58
30730;BME280;17476;48.458;7.928;2023-02-01T14:25:45;100824.19;;;7.06;77.45
30730;BME280;17476;48.458;7.928;2023-02-01T14:28:25;100821.72;;;7.05;75.48
30730;BME280;17476;48.458;7.928;2023-02-01T14:30:54;100814.25;;;7.00;74.88
30730;BME280;17476;48.458;7.928;2023-02-01T14:33:24;100820.16;;;7.02;74.00
30730;BME280;17476;48.458;7.928;2023-02-01T14:36:08;100826.78;;;7.06;74.62
30730;BME280;17476;48.458;7.928;2023-02-01T14:38:37;100826.31;;;7.01;74.78
30730;BME280;17476;48.458;7.928;2023-02-01T14:41:31;100832.59;;;6.99;75.76
30730;BME280;17476;48.458;7.928;2023-02-01T14:47:25;100848.28;;;6.97;75.49
30730;BME280;17476;48.458;7.928;2023-02-01T14:52:42;100843.81;;;6.99;75.47
30730;BME280;17476;48.458;7.928;2023-02-01T14:55:27;100852.69;;;7.08;74.41
30730;BME280;17476;48.458;7.928;2023-02-01T14:57:57;100855.41;;;7.06;74.55
30730;BME280;17476;48.458;7.928;2023-02-01T15:00:30;100856.78;;;7.10;73.90
30730;BME280;17476;48.458;7.928;2023-02-01T15:03:35;100858.69;;;7.08;75.13
30730;BME280;17476;48.458;7.928;2023-02-01T15:06:04;100856.78;;;7.10;75.47
30730;BME280;17476;48.458;7.928;2023-02-01T15:08:36;100868.03;;;7.11;75.48
30730;BME280;17476;48.458;7.928;2023-02-01T15:11:11;100861.78;;;7.02;76.34
30730;BME280;17476;48.458;7.928;2023-02-01T15:13:39;100858.47;;;7.00;76.31
30730;BME280;17476;48.458;7.928;2023-02-01T15:16:13;100856.81;;;6.99;77.18
30730;BME280;17476;48.458;7.928;2023-02-01T15:18:40;100863.78;;;6.88;76.95
30730;BME280;17476;48.458;7.928;2023-02-01T15:21:19;100857.03;;;6.85;78.32
30730;BME280;17476;48.458;7.928;2023-02-01T15:23:45;100866.50;;;6.86;78.73
30730;BME280;17476;48.458;7.928;2023-02-01T15:26:34;100860.94;;;6.91;78.98
30730;BME280;17476;48.458;7.928;2023-02-01T15:29:00;100875.47;;;6.82;79.12
30730;BME280;17476;48.458;7.928;2023-02-01T15:31:42;100874.75;;;6.80;80.14
30730;BME280;17476;48.458;7.928;2023-02-01T15:34:08;100876.16;;;6.84;79.73
30730;BME280;17476;48.458;7.928;2023-02-01T15:36:34;100880.31;;;6.87;78.74